• Join FlightAware (Why Join?)
  • Login
  • US Flag 
11:03PM EDT


 

Airport Tracker/Info


-or-


 

Live Flight TrackerFlight Track Log ✈ VH-BLD ✈ 06-Jul-2013 ✈ YBAF - YBAF

Flight Track Log - Related Links

Times and Time Zones

All times are in EDT time to prevent confusion due to time zone crossing. See the VH-BLD flight status page for this flight to view local times or setup timezone preferences in your user account.

Time Position Orientation Groundspeed Altitude Reporting Facility
EDT Latitude Longitude Course Direction KTS MPH feet Rate Location/Type
08:37PM -27.8669 153.4281 177° South 93 107 1,300  Level Aus ATC (RADAR)
08:38PM -27.8816 153.4290 177° South 91 105 1,400  Climbing Aus ATC (RADAR)
08:38PM -27.8994 153.4310 174° South 96 110 1,300 -120 Descending Aus ATC (RADAR)
08:39PM -27.9174 153.4319 178° South 97 112 1,300 60 Level Aus ATC (RADAR)
08:40PM -27.9449 153.4328 178° South 99 114 1,400  Climbing Aus ATC (RADAR)
08:41PM -27.9722 153.4348 176° South 98 113 1,300 -60 Descending Aus ATC (RADAR)
08:42PM -27.9925 153.4358 177° South 97 112 1,300  Level Aus ATC (RADAR)
08:42PM -28.0086 153.4373 175° South 99 114 1,300 -120 Level Aus ATC (RADAR)
08:43PM -28.0245 153.4393 173° South 99 114 1,200 180 Descending Aus ATC (RADAR)
08:43PM -28.0369 153.4415 171° South 91 105 1,500 120 Climbing Aus ATC (RADAR)
08:44PM -28.0567 153.4468 167° South 98 113 1,400 -120 Descending Aus ATC (RADAR)
08:45PM -28.0743 153.4529 163° South 100 115 1,400 -180 Level Aus ATC (RADAR)
08:46PM -28.1017 153.4657 158° South 107 123 1,100 -360 Descending Aus ATC (RADAR)
08:47PM -28.1180 153.4769 149° Southeast 85 98 800 -480 Descending Aus ATC (RADAR)
08:47PM -28.1279 153.4832 151° Southeast 71 82 500 -300 Descending Aus ATC (RADAR)
08:48PM -28.1420 153.4921 151° Southeast 70 81 400 -180 Descending Aus ATC (RADAR)
08:49PM -28.1571 153.5015 151° Southeast 72 83 -180 Descending Aus ATC (RADAR)
08:50PM -28.1727 153.5113 151° Southeast 72 83 100 240 Climbing Aus ATC (RADAR)
08:51PM -28.1874 153.5288 134° Southeast 86 99 500 120 Climbing Aus ATC (RADAR)
08:52PM -28.1755 153.5540 62° Northeast 111 128 400 -240 Descending Aus ATC (RADAR)
08:52PM -28.1602 153.5507 349° North 112 129 200 -240 Descending Aus ATC (RADAR)
08:53PM -28.1620 153.5333 264° West 106 122 200 60 Level Aus ATC (RADAR)
08:53PM -28.1561 153.5148 290° West 106 122 300 120 Climbing Aus ATC (RADAR)
08:54PM -28.1432 153.5012 317° Northwest 108 124 400  Climbing Aus ATC (RADAR)
08:54PM -28.1285 153.4913 329° Northwest 104 120 300 -120 Descending Aus ATC (RADAR)
08:55PM -28.1170 153.4760 310° West 107 123 300 60 Level Aus ATC (RADAR)
08:56PM -28.1028 153.4683 334° Northwest 110 127 400 180 Climbing Aus ATC (RADAR)
08:56PM -28.0869 153.4606 337° Northwest 107 123 500  Climbing Aus ATC (RADAR)
08:57PM -28.0724 153.4492 325° Northwest 110 127 400 -120 Descending Aus ATC (RADAR)
08:57PM -28.0578 153.4443 343° North 107 123 400 60 Level Aus ATC (RADAR)
08:58PM -28.0412 153.4406 349° North 104 120 500 -120 Climbing Aus ATC (RADAR)
08:58PM -28.0253 153.4376 350° North 114 131 300 -120 Descending Aus ATC (RADAR)
08:59PM -28.0082 153.4345 351° North 106 122 400  Climbing Aus ATC (RADAR)
09:00PM -27.9864 153.4327 356° North 106 122 300  Descending Aus ATC (RADAR)
09:01PM -27.9579 153.4319 359° North 98 113 500 120 Climbing Aus ATC (RADAR)
09:01PM -27.9365 153.4328 North 102 117 600 360 Climbing Aus ATC (RADAR)
09:02PM -27.9208 153.4326 359° North 95 109 1,000 300 Climbing Aus ATC (RADAR)
09:03PM -27.8994 153.4309 356° North 105 121 1,000  Level Aus ATC (RADAR)
09:04PM -27.8695 153.4309 360° North 107 123 1,100 240 Climbing Aus ATC (RADAR)
09:05PM -27.8448 153.4217 342° North 103 119 1,500 180 Climbing Aus ATC (RADAR)
09:06PM -27.8084 153.4055 339° North 111 128 1,500  Level Aus ATC (RADAR)
09:07PM -27.7857 153.3851 322° Northwest 102 117 1,600  Climbing Aus ATC (RADAR)
09:08PM -27.7659 153.3656 319° Northwest 112 129 1,500 -120 Descending Aus ATC (RADAR)
09:08PM -27.7520 153.3527 320° Northwest 108 124 1,500  Level Aus ATC (RADAR)
09:09PM -27.7370 153.3384 320° Northwest 104 120 1,500 -60 Level Aus ATC (RADAR)
09:10PM -27.7223 153.3078 298° West 101 116 1,400 -120 Descending Aus ATC (RADAR)
09:13PM -27.6832 153.2283 300° West -420 Descending Aus ATC (Calculated)
09:19PM -27.5986 153.0630 213° Southwest  Level Aus ATC (Calculated)
09:19PM -27.5986 153.0630 213° Southwest  Level Aus ATC (Calculated)